Pride — ZDFD7 — position and weather

sailwx.info

Track history (hours):
 
Tides and Currents Weather Stations Pressure Air Temp Water Temp Dewpoint Dewpoint Depression Visibility Wind Speed Wind Dir Waves Ship Positions

Pride

Last reported at 2014-Sep-19 18:17 UTC. Time now 2014-Sep-21 04:05 UTC.
Position N 59°07' E 009°35'.

Length 88 m; draft 4.1 m.

Type: Ship. MMSI: 236166000.

Date/timePositionNaut miles runAvg speedWind from/ knotsBaromVisibWave heightAir tempDewpointWater temp
2014-Sep-19 18:17N 59°07' E 009°35'7 6.8
2014-Sep-19 17:14N 59°02' E 009°44'6 8.7
2014-Sep-19 16:33N 58°56' E 009°46'49 9.5
2014-Sep-19 11:21N 58°18' E 008°45'7 9.4
2014-Sep-19 10:33N 58°13' E 008°34'71 7.9
2014-Sep-19 01:33N 58°07' E 006°20'9 9.4
2014-Sep-19 00:33N 58°13' E 006°08'9 8.9
2014-Sep-18 23:33N 58°19' E 005°56'9 9.1
2014-Sep-18 22:33N 58°25' E 005°43'22 9.2
2014-Sep-18 20:08N 58°44' E 005°19'610.2
2014-Sep-18 19:34N 58°50' E 005°19'1010.5
2014-Sep-18 18:33N 59°00' E 005°18'1010.1
2014-Sep-18 17:33N 59°11' E 005°20'1010.0
2014-Sep-18 16:33N 59°21' E 005°19'2 1.6
2014-Sep-18 15:32N 59°22' E 005°18'0 0.0
2014-Sep-18 14:33N 59°22' E 005°18'0 0.0
2014-Sep-18 13:31N 59°22' E 005°18'0 0.1
2014-Sep-18 12:34N 59°22' E 005°18'8 0.2
2014-Sep-16 22:16N 59°14' E 005°21'7 9.7
2014-Sep-16 21:33N 59°07' E 005°22'1110.6
2014-Sep-16 20:33N 58°57' E 005°20'1212.2
2014-Sep-16 19:33N 58°45' E 005°22'1412.4
2014-Sep-16 18:24N 58°32' E 005°35'1011.8
2014-Sep-16 17:33N 58°25' E 005°48'1510.5
2014-Sep-16 16:07N 58°17' E 006°12'610.0
2014-Sep-16 15:33N 58°15' E 006°22'  
2014-Sep-11 13:06N 53°44' E 000°29'710.1
2014-Sep-11 12:27N 53°38' E 000°22'9 9.7
2014-Sep-11 11:33N 53°33' E 000°11'1212.1
2014-Sep-11 10:33N 53°37' W 000°07'1010.1
2014-Sep-11 09:32N 53°43' W 000°22'  
Track history (hours):
 
Tides and Currents Weather Stations Pressure Air Temp Water Temp Dewpoint Dewpoint Depression Visibility Wind Speed Wind Dir Waves Ship Positions

Pride

Last reported at 2014-Sep-19 18:17 UTC. Time now 2014-Sep-21 04:05 UTC.
Position N 59°07' E 009°35'.

Length 88 m; draft 4.1 m.

Type: Ship. MMSI: 236166000.

Date/timePositionNaut miles runAvg speedWind from/ knotsBaromVisibWave heightAir tempDewpointWater temp
2014-Sep-19 18:17N 59°07' E 009°35'7 6.8
2014-Sep-19 17:14N 59°02' E 009°44'6 8.7
2014-Sep-19 16:33N 58°56' E 009°46'49 9.5
2014-Sep-19 11:21N 58°18' E 008°45'7 9.4
2014-Sep-19 10:33N 58°13' E 008°34'71 7.9
2014-Sep-19 01:33N 58°07' E 006°20'9 9.4
2014-Sep-19 00:33N 58°13' E 006°08'9 8.9
2014-Sep-18 23:33N 58°19' E 005°56'9 9.1
2014-Sep-18 22:33N 58°25' E 005°43'22 9.2
2014-Sep-18 20:08N 58°44' E 005°19'610.2
2014-Sep-18 19:34N 58°50' E 005°19'1010.5
2014-Sep-18 18:33N 59°00' E 005°18'1010.1
2014-Sep-18 17:33N 59°11' E 005°20'1010.0
2014-Sep-18 16:33N 59°21' E 005°19'2 1.6
2014-Sep-18 15:32N 59°22' E 005°18'0 0.0
2014-Sep-18 14:33N 59°22' E 005°18'0 0.0
2014-Sep-18 13:31N 59°22' E 005°18'0 0.1
2014-Sep-18 12:34N 59°22' E 005°18'8 0.2
2014-Sep-16 22:16N 59°14' E 005°21'7 9.7
2014-Sep-16 21:33N 59°07' E 005°22'1110.6
2014-Sep-16 20:33N 58°57' E 005°20'1212.2
2014-Sep-16 19:33N 58°45' E 005°22'1412.4
2014-Sep-16 18:24N 58°32' E 005°35'1011.8
2014-Sep-16 17:33N 58°25' E 005°48'1510.5
2014-Sep-16 16:07N 58°17' E 006°12'610.0
2014-Sep-16 15:33N 58°15' E 006°22'  
2014-Sep-11 13:06N 53°44' E 000°29'710.1
2014-Sep-11 12:27N 53°38' E 000°22'9 9.7
2014-Sep-11 11:33N 53°33' E 000°11'1212.1
2014-Sep-11 10:33N 53°37' W 000°07'1010.1
2014-Sep-11 09:32N 53°43' W 000°22'  

Dump ship's entire track history